createdAt,value
2022-11-29T00:00:58.404Z,20.73
2022-11-29T00:03:26.091Z,19.08
2022-11-29T00:05:53.390Z,18.75
2022-11-29T00:08:20.867Z,16.95
2022-11-29T00:10:47.910Z,17.17
2022-11-29T00:13:14.942Z,16.65
2022-11-29T00:15:41.772Z,15.05
2022-11-29T00:18:09.018Z,17.80
2022-11-29T00:20:38.633Z,17.20
2022-11-29T00:23:05.404Z,19.15
2022-11-29T00:25:32.220Z,16.63
2022-11-29T00:27:59.074Z,17.27
2022-11-29T00:30:26.049Z,22.17
2022-11-29T00:32:52.884Z,13.35
2022-11-29T00:35:19.754Z,19.20
2022-11-29T00:37:46.532Z,17.30
2022-11-29T00:40:13.470Z,16.73
2022-11-29T00:42:40.268Z,15.35
2022-11-29T00:45:07.575Z,15.27
2022-11-29T00:47:34.798Z,16.00
2022-11-29T00:50:01.624Z,16.92
2022-11-29T00:52:28.564Z,13.18
2022-11-29T00:54:55.336Z,16.38
2022-11-29T00:57:22.162Z,16.52
2022-11-29T00:59:49.013Z,17.10
2022-11-29T01:02:15.840Z,14.48
2022-11-29T01:04:43.008Z,16.83
2022-11-29T01:07:09.955Z,15.90
2022-11-29T01:09:36.733Z,16.95
2022-11-29T01:12:03.668Z,13.25
2022-11-29T01:14:30.506Z,15.43
2022-11-29T01:16:57.317Z,15.93
2022-11-29T01:19:24.138Z,21.40
2022-11-29T01:21:50.990Z,16.77
2022-11-29T01:24:17.799Z,14.23
2022-11-29T01:26:44.616Z,16.40
2022-11-29T01:29:13.114Z,16.48
2022-11-29T01:31:40.287Z,19.52
2022-11-29T01:34:07.558Z,16.52
2022-11-29T01:36:35.448Z,19.75
2022-11-29T01:39:04.387Z,18.33
2022-11-29T01:41:33.413Z,16.75
2022-11-29T01:44:26.302Z,15.73
2022-11-29T01:46:54.405Z,15.90
2022-11-29T01:49:27.220Z,16.13
2022-11-29T01:52:02.610Z,15.20
2022-11-29T01:54:31.787Z,13.07
2022-11-29T01:56:59.495Z,14.40
2022-11-29T01:59:29.616Z,13.43
2022-11-29T02:02:12.029Z,13.35
2022-11-29T02:04:41.715Z,12.73
2022-11-29T02:07:09.051Z,15.75
2022-11-29T02:09:35.813Z,17.77
2022-11-29T02:12:20.669Z,19.65
2022-11-29T02:15:15.225Z,17.77
2022-11-29T02:18:14.786Z,10.80
2022-11-29T02:21:11.824Z,15.52
2022-11-29T02:24:36.766Z,9.75
2022-11-29T02:27:29.402Z,12.00
2022-11-29T02:30:08.643Z,11.68
2022-11-29T02:32:50.427Z,12.38
2022-11-29T02:35:51.261Z,14.60
2022-11-29T02:38:56.746Z,10.98
2022-11-29T02:41:35.422Z,10.88
2022-11-29T02:44:29.043Z,14.95
2022-11-29T02:47:40.460Z,10.65
2022-11-29T02:50:10.621Z,9.05
2022-11-29T02:52:50.613Z,9.20
2022-11-29T02:56:08.708Z,9.35
2022-11-29T02:58:54.040Z,8.40
2022-11-29T03:01:29.207Z,9.52
2022-11-29T03:04:19.544Z,9.35
2022-11-29T03:07:25.647Z,9.25
2022-11-29T03:10:06.932Z,9.00
2022-11-29T03:12:41.675Z,9.25
2022-11-29T03:15:23.814Z,9.75
2022-11-29T03:18:15.011Z,9.00
2022-11-29T03:21:05.932Z,8.63
2022-11-29T03:23:42.484Z,9.13
2022-11-29T03:26:14.555Z,9.70
2022-11-29T03:28:56.719Z,9.43
2022-11-29T03:31:37.080Z,9.02
2022-11-29T03:34:25.494Z,9.05
2022-11-29T03:37:18.585Z,9.68
2022-11-29T03:39:56.565Z,9.50
2022-11-29T03:42:50.667Z,8.82
2022-11-29T03:45:34.948Z,8.88
2022-11-29T03:48:36.571Z,10.13
2022-11-29T03:51:21.886Z,9.20
2022-11-29T03:53:58.312Z,9.23
2022-11-29T03:56:37.352Z,10.20
2022-11-29T03:59:25.803Z,11.75
2022-11-29T04:02:23.496Z,12.82
2022-11-29T04:04:59.020Z,9.48
2022-11-29T04:07:49.892Z,9.77
2022-11-29T04:10:38.421Z,10.43
2022-11-29T04:13:14.578Z,9.45
2022-11-29T04:16:03.094Z,9.68
2022-11-29T04:18:51.698Z,9.40
2022-11-29T04:21:21.308Z,9.48
2022-11-29T04:24:09.264Z,9.98
2022-11-29T04:27:03.830Z,9.45
2022-11-29T04:29:50.513Z,9.00
2022-11-29T04:32:32.354Z,8.18
2022-11-29T04:35:28.640Z,9.50
2022-11-29T04:38:23.459Z,8.75
2022-11-29T04:41:04.990Z,9.77
2022-11-29T04:43:46.954Z,9.15
2022-11-29T04:46:51.472Z,9.63
2022-11-29T04:49:51.729Z,8.80
2022-11-29T04:53:03.081Z,9.85
2022-11-29T04:55:35.562Z,9.38
2022-11-29T04:58:12.166Z,8.88
2022-11-29T05:01:06.971Z,9.00
2022-11-29T05:03:49.350Z,9.77
2022-11-29T05:06:44.318Z,10.15
2022-11-29T05:09:22.124Z,9.35
2022-11-29T05:12:00.054Z,9.57
2022-11-29T05:14:48.511Z,9.38
2022-11-29T05:17:39.988Z,8.45
2022-11-29T05:20:12.442Z,10.85
2022-11-29T05:22:45.708Z,10.82
2022-11-29T05:25:30.315Z,10.90
2022-11-29T05:28:41.596Z,8.90
2022-11-29T05:31:40.562Z,9.82
2022-11-29T05:34:49.430Z,8.30
2022-11-29T05:37:45.700Z,9.75
2022-11-29T05:40:21.099Z,9.60
2022-11-29T05:43:16.674Z,10.73
2022-11-29T05:46:26.721Z,10.80
2022-11-29T05:49:01.193Z,9.75
2022-11-29T05:51:50.366Z,10.32
2022-11-29T05:54:19.984Z,9.45
2022-11-29T05:57:11.755Z,10.45
2022-11-29T05:59:39.598Z,9.90
2022-11-29T06:02:32.448Z,11.38
2022-11-29T06:05:11.513Z,11.63
2022-11-29T06:07:48.430Z,10.45
2022-11-29T06:10:20.209Z,10.57
2022-11-29T06:13:11.503Z,9.93
2022-11-29T06:15:47.437Z,11.27
2022-11-29T06:18:37.375Z,10.13
2022-11-29T06:21:40.168Z,12.52
2022-11-29T06:24:16.702Z,9.43
2022-11-29T06:27:03.832Z,11.32
2022-11-29T06:29:40.914Z,10.77
2022-11-29T06:32:21.333Z,10.90
2022-11-29T06:35:17.292Z,11.02
2022-11-29T06:37:51.761Z,10.38
2022-11-29T06:40:18.780Z,8.88
2022-11-29T06:42:45.621Z,9.70
2022-11-29T06:45:14.267Z,9.77
2022-11-29T06:47:49.487Z,9.30
2022-11-29T06:50:28.240Z,12.18
2022-11-29T06:53:22.343Z,11.25
2022-11-29T06:56:02.730Z,9.55
2022-11-29T06:58:57.957Z,9.40
2022-11-29T07:01:50.220Z,11.05
2022-11-29T07:04:46.248Z,10.63
2022-11-29T07:07:22.396Z,11.52
2022-11-29T07:09:58.346Z,10.00
2022-11-29T07:12:25.737Z,11.02
2022-11-29T07:14:53.295Z,10.80
2022-11-29T07:17:35.462Z,10.57
2022-11-29T07:20:13.699Z,10.95
2022-11-29T07:22:58.628Z,9.98
2022-11-29T07:25:35.360Z,11.18
2022-11-29T07:28:28.268Z,11.18
2022-11-29T07:31:10.524Z,12.18
2022-11-29T07:33:52.756Z,11.65
2022-11-29T07:36:31.675Z,10.77
2022-11-29T07:39:16.545Z,10.57
2022-11-29T07:42:00.249Z,12.15
2022-11-29T07:44:42.002Z,10.02
2022-11-29T07:47:09.105Z,13.20
2022-11-29T07:49:38.513Z,9.65
2022-11-29T07:52:05.693Z,13.07
2022-11-29T07:54:32.568Z,14.43
2022-11-29T07:56:59.532Z,11.82
2022-11-29T07:59:26.357Z,11.32
2022-11-29T08:01:53.249Z,10.15
2022-11-29T08:04:20.078Z,11.07
2022-11-29T08:06:46.928Z,13.13
2022-11-29T08:09:13.870Z,9.88
2022-11-29T08:11:40.660Z,10.35
2022-11-29T08:14:07.536Z,15.20
2022-11-29T08:16:34.748Z,10.65
2022-11-29T08:19:01.549Z,10.60
2022-11-29T08:21:28.368Z,12.73
2022-11-29T08:23:55.174Z,13.20
2022-11-29T08:26:24.436Z,13.75
2022-11-29T08:28:55.012Z,13.57
2022-11-29T08:31:21.961Z,11.43
2022-11-29T08:33:48.969Z,13.48
2022-11-29T08:36:19.131Z,12.05
2022-11-29T08:38:46.916Z,13.73
2022-11-29T08:41:15.681Z,11.32
2022-11-29T08:43:43.031Z,12.95
2022-11-29T08:46:15.252Z,14.35
2022-11-29T08:48:43.784Z,14.02
2022-11-29T08:51:10.751Z,10.90
2022-11-29T08:53:43.778Z,12.40
2022-11-29T08:59:06.356Z,12.68
2022-11-29T09:01:33.420Z,13.68
2022-11-29T09:04:00.312Z,12.55
2022-11-29T09:06:38.001Z,12.25
2022-11-29T09:09:07.494Z,11.60
2022-11-29T09:11:36.301Z,14.13
2022-11-29T09:14:06.028Z,12.55
2022-11-29T09:16:36.349Z,12.57
2022-11-29T09:19:04.773Z,11.63
2022-11-29T09:21:33.706Z,12.43
2022-11-29T09:24:02.343Z,13.90
2022-11-29T09:26:32.253Z,14.00
2022-11-29T09:29:03.419Z,12.27
2022-11-29T09:31:33.612Z,13.13
2022-11-29T09:34:00.807Z,15.63
2022-11-29T09:36:29.839Z,15.68
2022-11-29T09:38:57.923Z,13.77
2022-11-29T09:41:48.491Z,14.57
2022-11-29T09:44:40.011Z,12.20
2022-11-29T09:47:21.751Z,13.32
2022-11-29T09:49:52.358Z,12.07
2022-11-29T09:52:37.378Z,13.55
2022-11-29T09:55:31.652Z,13.13
2022-11-29T09:58:01.499Z,11.23
2022-11-29T10:00:30.390Z,15.07
2022-11-29T10:03:02.199Z,12.85
2022-11-29T10:05:58.336Z,13.20
2022-11-29T10:08:34.383Z,15.05
2022-11-29T10:11:22.058Z,13.55
2022-11-29T10:13:53.582Z,13.68
2022-11-29T10:16:42.459Z,16.10
2022-11-29T10:19:21.782Z,14.93
2022-11-29T10:22:05.012Z,15.20
2022-11-29T10:24:33.791Z,15.13
2022-11-29T10:27:00.670Z,15.23
2022-11-29T10:29:27.625Z,14.52
2022-11-29T10:31:56.788Z,19.25
2022-11-29T10:34:25.938Z,15.63
2022-11-29T10:36:59.673Z,16.75
2022-11-29T10:39:29.643Z,19.02
2022-11-29T10:42:02.514Z,19.40
2022-11-29T10:44:33.268Z,16.02
2022-11-29T10:47:10.438Z,21.80
2022-11-29T10:49:40.271Z,20.25
2022-11-29T10:52:22.845Z,14.43
2022-11-29T10:54:52.298Z,17.10
2022-11-29T10:57:21.940Z,18.63
2022-11-29T11:00:09.862Z,15.65
2022-11-29T11:02:37.676Z,15.85
2022-11-29T11:05:18.696Z,18.80
2022-11-29T11:07:47.455Z,17.38
2022-11-29T11:10:29.600Z,16.98
2022-11-29T11:13:18.845Z,16.15
2022-11-29T11:15:45.771Z,17.33
2022-11-29T11:18:21.501Z,17.55
2022-11-29T11:20:58.656Z,17.98
2022-11-29T11:23:37.559Z,18.60
2022-11-29T11:26:13.530Z,20.55
2022-11-29T11:29:00.352Z,17.95
2022-11-29T11:31:38.099Z,16.17
2022-11-29T11:34:23.769Z,18.40
2022-11-29T11:36:50.657Z,16.33
2022-11-29T11:39:23.342Z,18.63
2022-11-29T11:42:10.394Z,15.43
2022-11-29T11:44:52.515Z,14.82
2022-11-29T11:47:28.683Z,14.95
2022-11-29T11:50:04.457Z,13.95
2022-11-29T11:52:39.830Z,16.48
2022-11-29T11:55:32.748Z,15.23
2022-11-29T11:58:12.018Z,16.27
2022-11-29T12:01:04.354Z,13.75
2022-11-29T12:03:52.688Z,11.70
2022-11-29T12:06:53.428Z,13.63
2022-11-29T12:09:28.725Z,14.07
2022-11-29T12:12:26.856Z,15.02
2022-11-29T12:14:59.396Z,16.35
2022-11-29T12:17:26.193Z,15.38
2022-11-29T12:20:04.528Z,16.33
2022-11-29T12:22:41.515Z,17.55
2022-11-29T12:25:19.461Z,13.70
2022-11-29T12:27:46.317Z,15.65
2022-11-29T12:30:15.126Z,15.68
2022-11-29T12:33:01.424Z,14.82
2022-11-29T12:35:43.273Z,14.95
2022-11-29T12:38:33.046Z,21.75
2022-11-29T12:41:42.641Z,25.08
2022-11-29T12:44:37.583Z,21.25
2022-11-29T12:47:37.340Z,20.05
2022-11-29T12:50:25.975Z,25.45
2022-11-29T12:53:13.607Z,23.10
2022-11-29T12:55:56.921Z,25.10
2022-11-29T12:58:45.626Z,21.38
2022-11-29T13:01:37.214Z,21.08
2022-11-29T13:04:20.403Z,25.67
2022-11-29T13:07:02.290Z,19.00
2022-11-29T13:09:47.993Z,23.13
2022-11-29T13:12:20.067Z,23.92
2022-11-29T13:15:11.904Z,22.17
2022-11-29T13:17:44.855Z,19.35
2022-11-29T13:20:40.285Z,24.10
2022-11-29T13:23:52.927Z,22.98
2022-11-29T13:26:22.929Z,18.17
2022-11-29T13:28:50.908Z,21.20
2022-11-29T13:31:21.122Z,20.27
2022-11-29T13:34:03.218Z,20.50
2022-11-29T13:37:07.533Z,20.60
2022-11-29T13:40:15.118Z,21.27
2022-11-29T13:42:53.403Z,21.38
2022-11-29T13:45:51.943Z,22.00
2022-11-29T13:48:28.672Z,18.00
2022-11-29T13:50:57.263Z,19.50
2022-11-29T13:53:30.668Z,19.80
2022-11-29T13:56:02.875Z,18.80
2022-11-29T13:58:30.885Z,21.73
2022-11-29T14:01:08.667Z,22.20
2022-11-29T14:03:38.462Z,20.35
2022-11-29T14:06:11.066Z,16.65
2022-11-29T14:09:16.821Z,20.70
2022-11-29T14:11:44.040Z,17.00
2022-11-29T14:14:30.047Z,17.20
2022-11-29T14:17:06.091Z,17.13
2022-11-29T14:19:34.783Z,15.25
2022-11-29T14:22:07.444Z,16.15
2022-11-29T14:24:37.175Z,17.80
2022-11-29T14:27:12.731Z,18.40
2022-11-29T14:29:53.614Z,15.68
2022-11-29T14:32:56.336Z,16.63
2022-11-29T14:35:37.449Z,14.27
2022-11-29T14:38:23.136Z,16.77
2022-11-29T14:41:16.652Z,14.80
2022-11-29T14:43:43.658Z,17.40
2022-11-29T14:46:29.379Z,15.13
2022-11-29T14:48:56.498Z,16.25
2022-11-29T14:51:30.106Z,19.20
2022-11-29T14:54:13.395Z,18.48
2022-11-29T14:56:45.077Z,17.10
2022-11-29T14:59:46.642Z,16.98
2022-11-29T15:02:35.887Z,15.15
2022-11-29T15:05:14.010Z,24.67
2022-11-29T15:07:50.076Z,18.45
2022-11-29T15:10:21.091Z,18.88
2022-11-29T15:12:49.344Z,21.85
2022-11-29T15:15:22.224Z,24.20
2022-11-29T15:17:59.050Z,21.92
2022-11-29T15:20:56.510Z,17.13
2022-11-29T15:23:23.375Z,18.13
2022-11-29T15:26:01.326Z,17.75
2022-11-29T15:28:29.681Z,17.42
2022-11-29T15:31:07.034Z,17.80
2022-11-29T15:33:37.146Z,15.10
2022-11-29T15:36:10.250Z,16.08
2022-11-29T15:38:46.060Z,14.63
2022-11-29T15:41:31.323Z,17.33
2022-11-29T15:44:00.364Z,13.93
2022-11-29T15:46:29.964Z,14.88
2022-11-29T15:49:24.785Z,19.40
2022-11-29T15:52:06.184Z,17.48
2022-11-29T15:54:46.629Z,15.07
2022-11-29T15:57:34.974Z,15.88
2022-11-29T16:00:06.163Z,13.88
2022-11-29T16:02:40.355Z,18.00
2022-11-29T16:05:15.456Z,15.63
2022-11-29T16:07:44.844Z,14.02
2022-11-29T16:10:14.208Z,14.02
2022-11-29T16:12:58.757Z,12.88
2022-11-29T16:15:35.977Z,12.95
2022-11-29T16:18:13.560Z,13.88
2022-11-29T16:20:40.850Z,13.80
2022-11-29T16:23:13.489Z,13.15
2022-11-29T16:25:52.393Z,15.85
2022-11-29T16:28:19.716Z,15.93
2022-11-29T16:30:46.550Z,12.05
2022-11-29T16:33:21.480Z,14.25
2022-11-29T16:35:48.876Z,14.85
2022-11-29T16:38:21.944Z,16.27
2022-11-29T16:41:07.337Z,15.73
2022-11-29T16:43:53.928Z,14.27
2022-11-29T16:46:20.895Z,15.85
2022-11-29T16:48:49.650Z,15.73
2022-11-29T16:51:24.851Z,14.00
2022-11-29T16:53:53.074Z,16.52
2022-11-29T16:56:26.225Z,18.17
2022-11-29T16:59:20.661Z,18.63
2022-11-29T17:01:43.304Z,15.82
2022-11-29T17:04:10.220Z,15.45
2022-11-29T17:06:37.975Z,18.42
2022-11-29T17:09:05.638Z,17.50
2022-11-29T17:11:32.724Z,16.10
2022-11-29T17:13:59.505Z,19.42
2022-11-29T17:16:26.383Z,16.27
2022-11-29T17:18:53.745Z,16.85
2022-11-29T17:21:27.921Z,16.88
2022-11-29T17:23:54.770Z,17.33
2022-11-29T17:26:23.340Z,14.70
2022-11-29T17:28:51.729Z,14.60
2022-11-29T17:31:21.194Z,16.73
2022-11-29T17:33:48.271Z,14.45
2022-11-29T17:36:17.855Z,16.05
2022-11-29T17:38:46.038Z,18.75
2022-11-29T17:41:18.512Z,17.33
2022-11-29T17:43:45.299Z,19.05
2022-11-29T17:46:24.475Z,16.90
2022-11-29T17:48:52.220Z,15.95
2022-11-29T17:51:50.670Z,17.08
2022-11-29T17:54:09.000Z,16.17
2022-11-29T17:56:35.895Z,17.08
2022-11-29T17:59:04.073Z,14.20
2022-11-29T18:01:35.846Z,16.00
2022-11-29T18:04:05.332Z,14.63
2022-11-29T18:06:40.270Z,15.43
2022-11-29T18:09:09.084Z,13.45
2022-11-29T18:11:46.371Z,16.92
2022-11-29T18:14:28.158Z,16.80
2022-11-29T18:16:55.462Z,13.80
2022-11-29T18:19:23.238Z,12.27
2022-11-29T18:21:51.062Z,15.95
2022-11-29T18:24:18.344Z,17.33
2022-11-29T18:26:46.040Z,15.77
2022-11-29T18:29:12.918Z,14.43
2022-11-29T18:31:42.416Z,15.98
2022-11-29T18:34:10.548Z,14.10
2022-11-29T18:36:42.985Z,14.75
2022-11-29T18:39:13.963Z,13.23
2022-11-29T18:41:43.158Z,18.08
2022-11-29T18:44:12.916Z,19.42
2022-11-29T18:46:43.097Z,20.17
2022-11-29T18:49:11.894Z,20.05
2022-11-29T18:51:39.391Z,19.35
2022-11-29T18:54:06.896Z,20.85
2022-11-29T18:56:35.766Z,19.00
2022-11-29T18:59:09.675Z,16.73
2022-11-29T19:01:40.880Z,19.17
2022-11-29T19:04:18.593Z,28.02
2022-11-29T19:06:46.345Z,27.58
2022-11-29T19:09:16.308Z,28.23
2022-11-29T19:11:43.181Z,24.38
2022-11-29T19:14:12.565Z,23.40
2022-11-29T19:16:42.951Z,30.52
2022-11-29T19:19:09.940Z,34.47
2022-11-29T19:21:37.184Z,43.42
2022-11-29T19:24:07.640Z,41.55
2022-11-29T19:26:34.855Z,33.92
2022-11-29T19:29:02.199Z,24.42
2022-11-29T19:31:29.364Z,26.70
2022-11-29T19:33:56.955Z,22.85
2022-11-29T19:36:29.227Z,29.90
2022-11-29T19:38:56.661Z,28.67
2022-11-29T19:41:32.633Z,32.58
2022-11-29T19:44:02.091Z,33.45
2022-11-29T19:46:35.077Z,30.50
2022-11-29T19:49:03.141Z,28.63
2022-11-29T19:51:30.337Z,26.38
2022-11-29T19:53:59.949Z,23.00
2022-11-29T19:56:27.938Z,30.02
2022-11-29T19:58:55.321Z,30.48
2022-11-29T20:01:25.161Z,30.95
2022-11-29T20:03:52.915Z,33.35
2022-11-29T20:06:19.976Z,33.20
2022-11-29T20:08:48.010Z,35.60
2022-11-29T20:11:17.520Z,30.40
2022-11-29T20:13:46.573Z,31.40
2022-11-29T20:16:18.605Z,36.55
2022-11-29T20:18:51.095Z,35.67
2022-11-29T20:21:27.316Z,38.40
2022-11-29T20:23:58.972Z,31.92
2022-11-29T20:26:26.680Z,37.92
2022-11-29T20:28:53.538Z,35.47
2022-11-29T20:31:22.939Z,41.58
2022-11-29T20:33:52.187Z,33.40
2022-11-29T20:36:49.811Z,34.80
2022-11-29T20:39:38.746Z,35.53
2022-11-29T20:42:31.767Z,34.33
2022-11-29T20:45:07.096Z,41.47
2022-11-29T20:47:47.177Z,37.75
2022-11-29T20:50:23.472Z,38.47
2022-11-29T20:53:12.350Z,33.25
2022-11-29T20:55:44.905Z,38.72
2022-11-29T20:58:14.827Z,37.85
2022-11-29T21:00:41.711Z,34.88
2022-11-29T21:03:08.459Z,36.38
2022-11-29T21:05:37.970Z,35.70
2022-11-29T21:08:04.984Z,31.85
2022-11-29T21:10:31.848Z,37.45
2022-11-29T21:12:59.029Z,34.65
2022-11-29T21:15:26.726Z,36.67
2022-11-29T21:17:53.955Z,33.83
2022-11-29T21:20:26.749Z,34.58
2022-11-29T21:23:20.173Z,39.70
2022-11-29T21:26:11.040Z,41.22
2022-11-29T21:28:49.142Z,38.90
2022-11-29T21:31:17.819Z,35.95
2022-11-29T21:33:45.159Z,33.83
2022-11-29T21:36:12.948Z,37.92
2022-11-29T21:38:40.066Z,40.45
2022-11-29T21:41:07.003Z,39.00
2022-11-29T21:44:04.186Z,36.05
2022-11-29T21:46:20.809Z,33.15
2022-11-29T21:48:47.661Z,32.72
2022-11-29T21:51:14.430Z,34.70
2022-11-29T21:53:41.337Z,31.95
2022-11-29T21:56:10.197Z,30.40
2022-11-29T21:58:38.576Z,29.80
2022-11-29T22:01:27.553Z,29.60
2022-11-29T22:03:54.849Z,28.15
2022-11-29T22:06:24.271Z,29.40
2022-11-29T22:08:51.292Z,31.75
2022-11-29T22:11:30.924Z,33.28
2022-11-29T22:14:14.162Z,27.77
2022-11-29T22:16:52.708Z,33.30
2022-11-29T22:19:22.149Z,30.05
2022-11-29T22:21:51.526Z,29.17
2022-11-29T22:24:20.778Z,29.40
2022-11-29T22:26:48.950Z,30.33
2022-11-29T22:29:16.563Z,30.10
2022-11-29T22:31:45.250Z,28.60
2022-11-29T22:34:12.314Z,29.20
2022-11-29T22:36:39.647Z,25.08
2022-11-29T22:39:07.498Z,27.58
2022-11-29T22:41:35.611Z,24.95
2022-11-29T22:44:02.954Z,23.35
2022-11-29T22:46:30.160Z,27.52
2022-11-29T22:48:58.296Z,23.50
2022-11-29T22:51:27.513Z,27.35
2022-11-29T22:53:55.879Z,25.55
2022-11-29T22:56:23.969Z,26.52
2022-11-29T22:58:50.803Z,26.25
2022-11-29T23:01:20.128Z,27.98
2022-11-29T23:03:51.718Z,27.88
2022-11-29T23:06:24.544Z,27.05
2022-11-29T23:08:53.287Z,28.42
2022-11-29T23:11:25.892Z,30.17
2022-11-29T23:13:53.305Z,36.85
2022-11-29T23:16:23.068Z,28.23
2022-11-29T23:18:50.127Z,40.45
2022-11-29T23:21:20.216Z,38.88
2022-11-29T23:23:51.471Z,34.65
2022-11-29T23:26:26.185Z,45.65
2022-11-29T23:28:54.238Z,33.80
2022-11-29T23:31:22.303Z,43.63
2022-11-29T23:33:49.613Z,34.92
2022-11-29T23:36:17.139Z,33.50
2022-11-29T23:38:44.048Z,38.28
2022-11-29T23:41:11.682Z,32.15
2022-11-29T23:43:40.481Z,33.10
2022-11-29T23:46:13.500Z,35.88
2022-11-29T23:48:40.666Z,32.72
2022-11-29T23:51:07.679Z,33.53
2022-11-29T23:53:34.523Z,30.48
2022-11-29T23:56:04.794Z,31.33
2022-11-29T23:58:32.932Z,34.40
